sensor_id;sensor_type;location;lat;lon;timestamp;P1;durP1;ratioP1;P2;durP2;ratioP2
49366;SDS011;35245;52.026;8.540;2024-03-22T00:01:48;38.28;;;25.25;;
49366;SDS011;35245;52.026;8.540;2024-03-22T00:04:15;37.17;;;26.75;;
49366;SDS011;35245;52.026;8.540;2024-03-22T00:06:43;36.90;;;26.77;;
49366;SDS011;35245;52.026;8.540;2024-03-22T00:09:10;37.55;;;26.35;;
49366;SDS011;35245;52.026;8.540;2024-03-22T00:11:39;38.53;;;27.10;;
49366;SDS011;35245;52.026;8.540;2024-03-22T00:14:06;39.88;;;27.75;;
49366;SDS011;35245;52.026;8.540;2024-03-22T00:16:35;43.78;;;29.15;;
49366;SDS011;35245;52.026;8.540;2024-03-22T00:19:01;39.95;;;28.60;;
49366;SDS011;35245;52.026;8.540;2024-03-22T00:21:29;38.83;;;28.00;;
49366;SDS011;35245;52.026;8.540;2024-03-22T00:23:55;42.40;;;28.85;;
49366;SDS011;35245;52.026;8.540;2024-03-22T00:26:23;40.95;;;28.63;;
49366;SDS011;35245;52.026;8.540;2024-03-22T00:28:49;43.78;;;30.30;;
49366;SDS011;35245;52.026;8.540;2024-03-22T00:31:16;43.17;;;29.67;;
49366;SDS011;35245;52.026;8.540;2024-03-22T00:33:44;41.20;;;29.05;;
49366;SDS011;35245;52.026;8.540;2024-03-22T00:36:12;46.38;;;29.90;;
49366;SDS011;35245;52.026;8.540;2024-03-22T00:38:38;42.10;;;29.15;;
49366;SDS011;35245;52.026;8.540;2024-03-22T00:41:05;43.70;;;29.15;;
49366;SDS011;35245;52.026;8.540;2024-03-22T00:43:31;43.92;;;30.45;;
49366;SDS011;35245;52.026;8.540;2024-03-22T00:45:59;44.05;;;30.52;;
49366;SDS011;35245;52.026;8.540;2024-03-22T00:48:26;44.13;;;30.70;;
49366;SDS011;35245;52.026;8.540;2024-03-22T00:50:54;44.88;;;31.20;;
49366;SDS011;35245;52.026;8.540;2024-03-22T00:53:21;43.33;;;30.92;;
49366;SDS011;35245;52.026;8.540;2024-03-22T00:55:48;43.80;;;30.95;;
49366;SDS011;35245;52.026;8.540;2024-03-22T00:58:16;44.30;;;30.80;;
49366;SDS011;35245;52.026;8.540;2024-03-22T01:00:44;46.30;;;29.90;;
49366;SDS011;35245;52.026;8.540;2024-03-22T01:03:11;41.80;;;30.02;;
49366;SDS011;35245;52.026;8.540;2024-03-22T01:05:38;46.20;;;31.88;;
49366;SDS011;35245;52.026;8.540;2024-03-22T01:08:08;45.50;;;30.30;;
49366;SDS011;35245;52.026;8.540;2024-03-22T01:10:35;45.63;;;31.27;;
49366;SDS011;35245;52.026;8.540;2024-03-22T01:13:01;48.47;;;32.00;;
49366;SDS011;35245;52.026;8.540;2024-03-22T01:15:28;44.53;;;32.05;;
49366;SDS011;35245;52.026;8.540;2024-03-22T01:17:55;45.78;;;31.05;;
49366;SDS011;35245;52.026;8.540;2024-03-22T01:20:22;45.92;;;31.48;;
49366;SDS011;35245;52.026;8.540;2024-03-22T01:22:48;47.95;;;31.50;;
49366;SDS011;35245;52.026;8.540;2024-03-22T01:25:17;46.72;;;32.45;;
49366;SDS011;35245;52.026;8.540;2024-03-22T01:27:43;47.17;;;31.90;;
49366;SDS011;35245;52.026;8.540;2024-03-22T01:30:10;47.75;;;32.80;;
49366;SDS011;35245;52.026;8.540;2024-03-22T01:32:37;47.80;;;32.45;;
49366;SDS011;35245;52.026;8.540;2024-03-22T01:35:04;48.83;;;33.88;;
49366;SDS011;35245;52.026;8.540;2024-03-22T01:37:31;46.45;;;30.70;;
49366;SDS011;35245;52.026;8.540;2024-03-22T01:39:58;48.20;;;31.40;;
49366;SDS011;35245;52.026;8.540;2024-03-22T01:42:25;45.90;;;31.83;;
49366;SDS011;35245;52.026;8.540;2024-03-22T01:44:52;47.60;;;31.92;;
49366;SDS011;35245;52.026;8.540;2024-03-22T01:47:18;48.80;;;32.33;;
49366;SDS011;35245;52.026;8.540;2024-03-22T01:49:46;46.33;;;31.92;;
49366;SDS011;35245;52.026;8.540;2024-03-22T01:52:13;48.63;;;31.50;;
49366;SDS011;35245;52.026;8.540;2024-03-22T01:54:41;51.33;;;33.42;;
49366;SDS011;35245;52.026;8.540;2024-03-22T01:57:07;47.85;;;32.03;;
49366;SDS011;35245;52.026;8.540;2024-03-22T01:59:36;48.58;;;32.55;;
49366;SDS011;35245;52.026;8.540;2024-03-22T02:02:04;51.35;;;32.58;;
49366;SDS011;35245;52.026;8.540;2024-03-22T02:04:31;47.70;;;32.22;;
49366;SDS011;35245;52.026;8.540;2024-03-22T02:06:57;49.85;;;32.97;;
49366;SDS011;35245;52.026;8.540;2024-03-22T02:09:24;50.50;;;32.15;;
49366;SDS011;35245;52.026;8.540;2024-03-22T02:11:51;46.15;;;31.00;;
49366;SDS011;35245;52.026;8.540;2024-03-22T02:14:18;47.15;;;31.00;;
49366;SDS011;35245;52.026;8.540;2024-03-22T02:16:46;51.80;;;32.95;;
49366;SDS011;35245;52.026;8.540;2024-03-22T02:19:13;50.45;;;31.48;;
49366;SDS011;35245;52.026;8.540;2024-03-22T02:21:39;49.58;;;32.05;;
49366;SDS011;35245;52.026;8.540;2024-03-22T02:24:08;46.90;;;29.95;;
49366;SDS011;35245;52.026;8.540;2024-03-22T02:26:34;49.55;;;32.20;;
49366;SDS011;35245;52.026;8.540;2024-03-22T02:29:01;48.72;;;31.00;;
49366;SDS011;35245;52.026;8.540;2024-03-22T02:31:27;51.75;;;31.48;;
49366;SDS011;35245;52.026;8.540;2024-03-22T02:33:54;52.10;;;32.38;;
49366;SDS011;35245;52.026;8.540;2024-03-22T02:36:20;46.33;;;31.00;;
49366;SDS011;35245;52.026;8.540;2024-03-22T02:38:48;51.55;;;31.33;;
49366;SDS011;35245;52.026;8.540;2024-03-22T02:41:15;49.78;;;31.23;;
49366;SDS011;35245;52.026;8.540;2024-03-22T02:43:42;51.15;;;32.45;;
49366;SDS011;35245;52.026;8.540;2024-03-22T02:46:08;47.15;;;29.98;;
49366;SDS011;35245;52.026;8.540;2024-03-22T02:48:35;45.83;;;30.08;;
49366;SDS011;35245;52.026;8.540;2024-03-22T02:51:01;47.75;;;30.65;;
49366;SDS011;35245;52.026;8.540;2024-03-22T02:53:29;48.67;;;30.08;;
49366;SDS011;35245;52.026;8.540;2024-03-22T02:55:55;48.17;;;30.85;;
49366;SDS011;35245;52.026;8.540;2024-03-22T02:58:23;53.40;;;31.75;;
49366;SDS011;35245;52.026;8.540;2024-03-22T03:00:49;50.42;;;30.75;;
49366;SDS011;35245;52.026;8.540;2024-03-22T03:03:16;49.15;;;30.25;;
49366;SDS011;35245;52.026;8.540;2024-03-22T03:05:42;49.97;;;29.67;;
49366;SDS011;35245;52.026;8.540;2024-03-22T03:08:10;46.28;;;28.73;;
49366;SDS011;35245;52.026;8.540;2024-03-22T03:10:36;49.33;;;30.52;;
49366;SDS011;35245;52.026;8.540;2024-03-22T03:13:03;47.42;;;31.10;;
49366;SDS011;35245;52.026;8.540;2024-03-22T03:15:30;51.42;;;32.38;;
49366;SDS011;35245;52.026;8.540;2024-03-22T03:17:57;51.30;;;31.52;;
49366;SDS011;35245;52.026;8.540;2024-03-22T03:20:24;52.38;;;30.67;;
49366;SDS011;35245;52.026;8.540;2024-03-22T03:22:52;53.70;;;32.08;;
49366;SDS011;35245;52.026;8.540;2024-03-22T03:25:18;50.22;;;31.05;;
49366;SDS011;35245;52.026;8.540;2024-03-22T03:27:45;54.20;;;30.65;;
49366;SDS011;35245;52.026;8.540;2024-03-22T03:30:11;51.35;;;31.25;;
49366;SDS011;35245;52.026;8.540;2024-03-22T03:32:39;52.90;;;30.15;;
49366;SDS011;35245;52.026;8.540;2024-03-22T03:35:06;50.33;;;31.65;;
49366;SDS011;35245;52.026;8.540;2024-03-22T03:37:33;50.50;;;30.80;;
49366;SDS011;35245;52.026;8.540;2024-03-22T03:40:00;49.13;;;31.15;;
49366;SDS011;35245;52.026;8.540;2024-03-22T03:42:27;53.35;;;30.73;;
49366;SDS011;35245;52.026;8.540;2024-03-22T03:44:53;50.55;;;30.40;;
49366;SDS011;35245;52.026;8.540;2024-03-22T03:47:20;49.67;;;31.17;;
49366;SDS011;35245;52.026;8.540;2024-03-22T03:49:48;49.70;;;29.13;;
49366;SDS011;35245;52.026;8.540;2024-03-22T03:52:15;55.03;;;31.92;;
49366;SDS011;35245;52.026;8.540;2024-03-22T03:54:41;50.63;;;30.50;;
49366;SDS011;35245;52.026;8.540;2024-03-22T03:57:08;50.42;;;30.45;;
49366;SDS011;35245;52.026;8.540;2024-03-22T03:59:34;51.03;;;28.92;;
49366;SDS011;35245;52.026;8.540;2024-03-22T04:02:01;43.92;;;27.45;;
49366;SDS011;35245;52.026;8.540;2024-03-22T04:04:28;49.00;;;30.77;;
49366;SDS011;35245;52.026;8.540;2024-03-22T04:06:56;52.03;;;30.92;;
49366;SDS011;35245;52.026;8.540;2024-03-22T04:09:22;44.28;;;29.10;;
49366;SDS011;35245;52.026;8.540;2024-03-22T04:11:49;46.95;;;29.05;;
49366;SDS011;35245;52.026;8.540;2024-03-22T04:14:15;49.33;;;29.08;;
49366;SDS011;35245;52.026;8.540;2024-03-22T04:16:42;47.47;;;29.52;;
49366;SDS011;35245;52.026;8.540;2024-03-22T04:19:08;48.33;;;29.73;;
49366;SDS011;35245;52.026;8.540;2024-03-22T04:21:35;46.85;;;29.42;;
49366;SDS011;35245;52.026;8.540;2024-03-22T04:24:03;49.80;;;29.48;;
49366;SDS011;35245;52.026;8.540;2024-03-22T04:26:31;51.03;;;29.48;;
49366;SDS011;35245;52.026;8.540;2024-03-22T04:28:57;52.72;;;30.52;;
49366;SDS011;35245;52.026;8.540;2024-03-22T04:31:24;51.30;;;30.25;;
49366;SDS011;35245;52.026;8.540;2024-03-22T04:33:50;45.75;;;29.00;;
49366;SDS011;35245;52.026;8.540;2024-03-22T04:36:17;50.05;;;29.50;;
49366;SDS011;35245;52.026;8.540;2024-03-22T04:38:44;47.03;;;28.63;;
49366;SDS011;35245;52.026;8.540;2024-03-22T04:41:12;48.42;;;29.42;;
49366;SDS011;35245;52.026;8.540;2024-03-22T04:43:39;45.38;;;28.67;;
49366;SDS011;35245;52.026;8.540;2024-03-22T04:46:06;47.25;;;28.75;;
49366;SDS011;35245;52.026;8.540;2024-03-22T04:48:33;47.65;;;28.65;;
49366;SDS011;35245;52.026;8.540;2024-03-22T04:51:00;49.90;;;28.25;;
49366;SDS011;35245;52.026;8.540;2024-03-22T04:53:27;47.30;;;28.20;;
49366;SDS011;35245;52.026;8.540;2024-03-22T04:55:53;50.17;;;28.70;;
49366;SDS011;35245;52.026;8.540;2024-03-22T04:58:21;50.83;;;29.30;;
49366;SDS011;35245;52.026;8.540;2024-03-22T05:00:48;50.55;;;28.27;;
49366;SDS011;35245;52.026;8.540;2024-03-22T05:03:21;47.92;;;27.23;;
49366;SDS011;35245;52.026;8.540;2024-03-22T05:05:49;45.70;;;28.52;;
49366;SDS011;35245;52.026;8.540;2024-03-22T05:08:16;47.60;;;28.45;;
49366;SDS011;35245;52.026;8.540;2024-03-22T05:10:42;48.80;;;26.85;;
49366;SDS011;35245;52.026;8.540;2024-03-22T05:13:10;50.80;;;28.77;;
49366;SDS011;35245;52.026;8.540;2024-03-22T05:15:37;45.38;;;28.15;;
49366;SDS011;35245;52.026;8.540;2024-03-22T05:18:04;45.78;;;27.08;;
49366;SDS011;35245;52.026;8.540;2024-03-22T05:20:31;47.13;;;27.58;;
49366;SDS011;35245;52.026;8.540;2024-03-22T05:22:58;45.85;;;28.17;;
49366;SDS011;35245;52.026;8.540;2024-03-22T05:25:24;47.72;;;27.30;;
49366;SDS011;35245;52.026;8.540;2024-03-22T05:27:51;42.88;;;26.27;;
49366;SDS011;35245;52.026;8.540;2024-03-22T05:30:17;50.40;;;26.98;;
49366;SDS011;35245;52.026;8.540;2024-03-22T05:32:46;44.75;;;26.25;;
49366;SDS011;35245;52.026;8.540;2024-03-22T05:35:12;46.38;;;27.75;;
49366;SDS011;35245;52.026;8.540;2024-03-22T05:37:39;44.03;;;26.52;;
49366;SDS011;35245;52.026;8.540;2024-03-22T05:40:06;47.78;;;26.42;;
49366;SDS011;35245;52.026;8.540;2024-03-22T05:42:35;48.85;;;26.92;;
49366;SDS011;35245;52.026;8.540;2024-03-22T05:45:01;46.78;;;26.08;;
49366;SDS011;35245;52.026;8.540;2024-03-22T05:47:28;43.65;;;25.17;;
49366;SDS011;35245;52.026;8.540;2024-03-22T05:49:57;47.05;;;25.85;;
49366;SDS011;35245;52.026;8.540;2024-03-22T05:52:24;40.80;;;25.55;;
49366;SDS011;35245;52.026;8.540;2024-03-22T05:54:50;47.65;;;25.73;;
49366;SDS011;35245;52.026;8.540;2024-03-22T05:57:18;44.85;;;25.92;;
49366;SDS011;35245;52.026;8.540;2024-03-22T05:59:44;43.15;;;25.60;;
49366;SDS011;35245;52.026;8.540;2024-03-22T06:02:11;41.10;;;24.63;;
49366;SDS011;35245;52.026;8.540;2024-03-22T06:04:37;42.42;;;23.98;;
49366;SDS011;35245;52.026;8.540;2024-03-22T06:07:05;43.42;;;25.63;;
49366;SDS011;35245;52.026;8.540;2024-03-22T06:09:32;44.00;;;25.65;;
49366;SDS011;35245;52.026;8.540;2024-03-22T06:12:10;43.58;;;25.40;;
49366;SDS011;35245;52.026;8.540;2024-03-22T06:14:37;41.65;;;25.17;;
49366;SDS011;35245;52.026;8.540;2024-03-22T06:17:04;42.80;;;24.55;;
49366;SDS011;35245;52.026;8.540;2024-03-22T06:19:31;43.65;;;25.02;;
49366;SDS011;35245;52.026;8.540;2024-03-22T06:21:58;36.58;;;23.75;;
49366;SDS011;35245;52.026;8.540;2024-03-22T06:24:25;39.80;;;23.92;;
49366;SDS011;35245;52.026;8.540;2024-03-22T06:26:52;40.00;;;23.08;;
49366;SDS011;35245;52.026;8.540;2024-03-22T06:29:19;41.22;;;23.80;;
49366;SDS011;35245;52.026;8.540;2024-03-22T06:31:46;39.40;;;23.67;;
49366;SDS011;35245;52.026;8.540;2024-03-22T06:34:12;43.38;;;22.23;;
49366;SDS011;35245;52.026;8.540;2024-03-22T06:36:40;35.60;;;21.77;;
49366;SDS011;35245;52.026;8.540;2024-03-22T06:39:06;39.28;;;22.23;;
49366;SDS011;35245;52.026;8.540;2024-03-22T06:41:36;37.45;;;22.90;;
49366;SDS011;35245;52.026;8.540;2024-03-22T06:44:02;38.38;;;22.60;;
49366;SDS011;35245;52.026;8.540;2024-03-22T06:46:30;35.70;;;22.02;;
49366;SDS011;35245;52.026;8.540;2024-03-22T06:48:57;36.92;;;21.65;;
49366;SDS011;35245;52.026;8.540;2024-03-22T06:51:24;34.85;;;20.92;;
49366;SDS011;35245;52.026;8.540;2024-03-22T06:53:50;33.25;;;21.02;;
49366;SDS011;35245;52.026;8.540;2024-03-22T06:56:17;36.53;;;21.77;;
49366;SDS011;35245;52.026;8.540;2024-03-22T06:58:46;36.40;;;21.15;;
49366;SDS011;35245;52.026;8.540;2024-03-22T07:01:13;34.40;;;20.13;;
49366;SDS011;35245;52.026;8.540;2024-03-22T07:03:39;34.25;;;20.52;;
49366;SDS011;35245;52.026;8.540;2024-03-22T07:06:06;32.05;;;21.08;;
49366;SDS011;35245;52.026;8.540;2024-03-22T07:08:34;33.85;;;20.27;;
49366;SDS011;35245;52.026;8.540;2024-03-22T07:11:04;31.17;;;19.77;;
49366;SDS011;35245;52.026;8.540;2024-03-22T07:13:31;33.35;;;21.55;;
49366;SDS011;35245;52.026;8.540;2024-03-22T07:15:59;31.20;;;20.75;;
49366;SDS011;35245;52.026;8.540;2024-03-22T07:18:26;31.67;;;19.17;;
49366;SDS011;35245;52.026;8.540;2024-03-22T07:20:53;28.65;;;18.92;;
49366;SDS011;35245;52.026;8.540;2024-03-22T07:23:19;33.67;;;18.95;;
49366;SDS011;35245;52.026;8.540;2024-03-22T07:25:46;26.77;;;17.83;;
49366;SDS011;35245;52.026;8.540;2024-03-22T07:28:13;31.20;;;19.35;;
49366;SDS011;35245;52.026;8.540;2024-03-22T07:30:41;30.00;;;17.25;;
49366;SDS011;35245;52.026;8.540;2024-03-22T07:33:09;28.88;;;18.75;;
49366;SDS011;35245;52.026;8.540;2024-03-22T07:35:38;28.83;;;17.80;;
49366;SDS011;35245;52.026;8.540;2024-03-22T07:38:04;30.25;;;18.67;;
49366;SDS011;35245;52.026;8.540;2024-03-22T07:40:32;30.48;;;18.30;;
49366;SDS011;35245;52.026;8.540;2024-03-22T07:42:58;32.88;;;17.92;;
49366;SDS011;35245;52.026;8.540;2024-03-22T07:45:30;27.13;;;18.02;;
49366;SDS011;35245;52.026;8.540;2024-03-22T07:47:57;27.10;;;16.80;;
49366;SDS011;35245;52.026;8.540;2024-03-22T07:50:26;27.40;;;17.17;;
49366;SDS011;35245;52.026;8.540;2024-03-22T07:52:52;26.33;;;17.13;;
49366;SDS011;35245;52.026;8.540;2024-03-22T07:55:19;27.83;;;17.33;;
49366;SDS011;35245;52.026;8.540;2024-03-22T07:57:45;29.00;;;17.38;;
49366;SDS011;35245;52.026;8.540;2024-03-22T08:00:12;30.50;;;17.17;;
49366;SDS011;35245;52.026;8.540;2024-03-22T08:02:39;27.20;;;17.15;;
49366;SDS011;35245;52.026;8.540;2024-03-22T08:05:07;31.52;;;17.33;;
49366;SDS011;35245;52.026;8.540;2024-03-22T08:07:35;26.00;;;16.55;;
49366;SDS011;35245;52.026;8.540;2024-03-22T08:10:03;27.33;;;16.92;;
49366;SDS011;35245;52.026;8.540;2024-03-22T08:12:30;25.83;;;16.75;;
49366;SDS011;35245;52.026;8.540;2024-03-22T08:14:57;26.08;;;16.95;;
49366;SDS011;35245;52.026;8.540;2024-03-22T08:17:23;26.05;;;16.45;;
49366;SDS011;35245;52.026;8.540;2024-03-22T08:19:50;25.50;;;16.83;;
49366;SDS011;35245;52.026;8.540;2024-03-22T08:22:16;25.08;;;15.68;;
49366;SDS011;35245;52.026;8.540;2024-03-22T08:24:44;23.85;;;15.95;;
49366;SDS011;35245;52.026;8.540;2024-03-22T08:27:11;24.35;;;15.80;;
49366;SDS011;35245;52.026;8.540;2024-03-22T08:29:39;26.20;;;15.65;;
49366;SDS011;35245;52.026;8.540;2024-03-22T08:32:06;28.80;;;16.75;;
49366;SDS011;35245;52.026;8.540;2024-03-22T08:34:33;24.83;;;16.33;;
49366;SDS011;35245;52.026;8.540;2024-03-22T08:36:59;26.40;;;16.95;;
49366;SDS011;35245;52.026;8.540;2024-03-22T08:39:28;29.08;;;16.95;;
49366;SDS011;35245;52.026;8.540;2024-03-22T08:41:56;24.90;;;15.80;;
49366;SDS011;35245;52.026;8.540;2024-03-22T08:44:23;23.95;;;15.90;;
49366;SDS011;35245;52.026;8.540;2024-03-22T08:46:49;28.95;;;16.17;;
49366;SDS011;35245;52.026;8.540;2024-03-22T08:49:17;29.85;;;16.67;;
49366;SDS011;35245;52.026;8.540;2024-03-22T08:51:44;24.77;;;15.50;;
49366;SDS011;35245;52.026;8.540;2024-03-22T08:54:13;20.67;;;15.10;;
49366;SDS011;35245;52.026;8.540;2024-03-22T08:56:39;26.05;;;15.57;;
49366;SDS011;35245;52.026;8.540;2024-03-22T08:59:08;25.95;;;15.07;;
49366;SDS011;35245;52.026;8.540;2024-03-22T09:01:35;23.35;;;15.15;;
49366;SDS011;35245;52.026;8.540;2024-03-22T09:04:02;24.17;;;15.75;;
49366;SDS011;35245;52.026;8.540;2024-03-22T09:06:29;22.27;;;14.50;;
49366;SDS011;35245;52.026;8.540;2024-03-22T09:08:56;30.52;;;15.30;;
49366;SDS011;35245;52.026;8.540;2024-03-22T09:11:23;23.67;;;14.55;;
49366;SDS011;35245;52.026;8.540;2024-03-22T09:13:51;23.73;;;14.57;;
49366;SDS011;35245;52.026;8.540;2024-03-22T09:16:20;23.52;;;14.10;;
49366;SDS011;35245;52.026;8.540;2024-03-22T09:18:46;27.75;;;14.75;;
49366;SDS011;35245;52.026;8.540;2024-03-22T09:21:13;27.85;;;15.82;;
49366;SDS011;35245;52.026;8.540;2024-03-22T09:23:39;22.30;;;13.75;;
49366;SDS011;35245;52.026;8.540;2024-03-22T09:26:06;20.48;;;14.27;;
49366;SDS011;35245;52.026;8.540;2024-03-22T09:28:32;23.05;;;14.68;;
49366;SDS011;35245;52.026;8.540;2024-03-22T09:31:03;25.20;;;13.80;;
49366;SDS011;35245;52.026;8.540;2024-03-22T09:33:32;26.08;;;14.13;;
49366;SDS011;35245;52.026;8.540;2024-03-22T09:35:59;23.98;;;14.60;;
49366;SDS011;35245;52.026;8.540;2024-03-22T09:38:25;26.33;;;15.65;;
49366;SDS011;35245;52.026;8.540;2024-03-22T09:40:53;26.58;;;14.40;;
49366;SDS011;35245;52.026;8.540;2024-03-22T09:43:19;21.50;;;13.75;;
49366;SDS011;35245;52.026;8.540;2024-03-22T09:45:47;31.35;;;14.35;;
49366;SDS011;35245;52.026;8.540;2024-03-22T09:48:14;23.27;;;13.90;;
49366;SDS011;35245;52.026;8.540;2024-03-22T09:50:44;22.98;;;14.13;;
49366;SDS011;35245;52.026;8.540;2024-03-22T09:53:12;22.85;;;14.00;;
49366;SDS011;35245;52.026;8.540;2024-03-22T09:55:44;22.08;;;14.95;;
49366;SDS011;35245;52.026;8.540;2024-03-22T09:58:12;21.00;;;14.05;;
49366;SDS011;35245;52.026;8.540;2024-03-22T10:00:39;22.05;;;13.65;;
49366;SDS011;35245;52.026;8.540;2024-03-22T10:03:06;30.15;;;14.85;;
49366;SDS011;35245;52.026;8.540;2024-03-22T10:05:36;20.17;;;13.82;;
49366;SDS011;35245;52.026;8.540;2024-03-22T10:08:04;25.90;;;12.55;;
49366;SDS011;35245;52.026;8.540;2024-03-22T10:10:31;18.70;;;13.50;;
49366;SDS011;35245;52.026;8.540;2024-03-22T10:13:00;21.95;;;13.52;;
49366;SDS011;35245;52.026;8.540;2024-03-22T10:15:27;20.42;;;13.85;;
49366;SDS011;35245;52.026;8.540;2024-03-22T10:17:56;21.77;;;13.10;;
49366;SDS011;35245;52.026;8.540;2024-03-22T10:20:24;21.00;;;13.45;;
49366;SDS011;35245;52.026;8.540;2024-03-22T10:22:54;21.02;;;14.27;;
49366;SDS011;35245;52.026;8.540;2024-03-22T10:25:25;22.83;;;14.57;;
49366;SDS011;35245;52.026;8.540;2024-03-22T10:27:53;20.95;;;13.55;;
49366;SDS011;35245;52.026;8.540;2024-03-22T10:30:21;20.65;;;13.88;;
49366;SDS011;35245;52.026;8.540;2024-03-22T10:32:48;22.25;;;13.88;;
49366;SDS011;35245;52.026;8.540;2024-03-22T10:35:15;23.42;;;14.05;;
49366;SDS011;35245;52.026;8.540;2024-03-22T10:37:42;21.02;;;13.90;;
49366;SDS011;35245;52.026;8.540;2024-03-22T10:40:09;28.52;;;13.43;;
49366;SDS011;35245;52.026;8.540;2024-03-22T10:42:38;25.00;;;13.80;;
49366;SDS011;35245;52.026;8.540;2024-03-22T10:45:07;20.70;;;13.82;;
49366;SDS011;35245;52.026;8.540;2024-03-22T10:47:36;19.42;;;13.50;;
49366;SDS011;35245;52.026;8.540;2024-03-22T10:50:05;20.17;;;13.02;;
49366;SDS011;35245;52.026;8.540;2024-03-22T10:52:34;23.33;;;13.80;;
49366;SDS011;35245;52.026;8.540;2024-03-22T10:55:07;17.10;;;12.90;;
49366;SDS011;35245;52.026;8.540;2024-03-22T10:57:54;23.13;;;13.45;;
49366;SDS011;35245;52.026;8.540;2024-03-22T11:00:27;18.33;;;11.80;;
49366;SDS011;35245;52.026;8.540;2024-03-22T11:02:53;18.77;;;12.32;;
49366;SDS011;35245;52.026;8.540;2024-03-22T11:05:20;21.98;;;13.00;;
49366;SDS011;35245;52.026;8.540;2024-03-22T11:07:47;20.05;;;12.65;;
49366;SDS011;35245;52.026;8.540;2024-03-22T11:10:14;23.35;;;12.50;;
49366;SDS011;35245;52.026;8.540;2024-03-22T11:12:41;21.30;;;12.38;;
49366;SDS011;35245;52.026;8.540;2024-03-22T11:15:10;19.65;;;12.10;;
49366;SDS011;35245;52.026;8.540;2024-03-22T11:17:37;19.42;;;11.98;;
49366;SDS011;35245;52.026;8.540;2024-03-22T11:20:05;22.73;;;13.55;;
49366;SDS011;35245;52.026;8.540;2024-03-22T11:22:31;20.08;;;13.43;;
49366;SDS011;35245;52.026;8.540;2024-03-22T11:24:58;20.55;;;13.00;;
49366;SDS011;35245;52.026;8.540;2024-03-22T11:27:24;20.08;;;12.65;;
49366;SDS011;35245;52.026;8.540;2024-03-22T11:29:52;22.20;;;12.40;;
49366;SDS011;35245;52.026;8.540;2024-03-22T11:32:21;20.95;;;12.23;;
49366;SDS011;35245;52.026;8.540;2024-03-22T11:34:49;19.05;;;12.35;;
49366;SDS011;35245;52.026;8.540;2024-03-22T11:37:16;20.33;;;14.23;;
49366;SDS011;35245;52.026;8.540;2024-03-22T11:39:43;22.15;;;13.32;;
49366;SDS011;35245;52.026;8.540;2024-03-22T11:42:09;21.35;;;14.45;;
49366;SDS011;35245;52.026;8.540;2024-03-22T11:44:37;20.45;;;14.48;;
49366;SDS011;35245;52.026;8.540;2024-03-22T11:47:05;22.08;;;14.05;;
49366;SDS011;35245;52.026;8.540;2024-03-22T11:49:34;24.27;;;14.82;;
49366;SDS011;35245;52.026;8.540;2024-03-22T11:52:02;22.30;;;15.15;;
49366;SDS011;35245;52.026;8.540;2024-03-22T11:54:28;22.13;;;15.20;;
49366;SDS011;35245;52.026;8.540;2024-03-22T11:56:55;23.67;;;15.98;;
49366;SDS011;35245;52.026;8.540;2024-03-22T11:59:22;25.42;;;15.88;;
49366;SDS011;35245;52.026;8.540;2024-03-22T12:01:49;24.98;;;15.93;;
49366;SDS011;35245;52.026;8.540;2024-03-22T12:04:15;26.45;;;16.00;;
49366;SDS011;35245;52.026;8.540;2024-03-22T12:06:43;24.90;;;18.50;;
49366;SDS011;35245;52.026;8.540;2024-03-22T12:09:10;31.67;;;19.13;;
49366;SDS011;35245;52.026;8.540;2024-03-22T12:11:38;29.90;;;18.65;;
49366;SDS011;35245;52.026;8.540;2024-03-22T12:14:05;27.35;;;18.63;;
49366;SDS011;35245;52.026;8.540;2024-03-22T12:16:32;25.13;;;17.88;;
49366;SDS011;35245;52.026;8.540;2024-03-22T12:18:58;28.40;;;19.92;;
49366;SDS011;35245;52.026;8.540;2024-03-22T12:21:25;26.60;;;19.30;;
49366;SDS011;35245;52.026;8.540;2024-03-22T12:23:53;31.15;;;20.33;;
49366;SDS011;35245;52.026;8.540;2024-03-22T12:26:20;30.67;;;20.48;;
49366;SDS011;35245;52.026;8.540;2024-03-22T12:28:46;31.77;;;20.63;;
49366;SDS011;35245;52.026;8.540;2024-03-22T12:31:13;32.38;;;19.77;;
49366;SDS011;35245;52.026;8.540;2024-03-22T12:33:42;30.00;;;19.25;;
49366;SDS011;35245;52.026;8.540;2024-03-22T12:36:10;27.15;;;18.67;;
49366;SDS011;35245;52.026;8.540;2024-03-22T12:38:36;30.98;;;19.92;;
49366;SDS011;35245;52.026;8.540;2024-03-22T12:41:04;27.02;;;19.45;;
49366;SDS011;35245;52.026;8.540;2024-03-22T12:43:32;26.63;;;18.63;;
49366;SDS011;35245;52.026;8.540;2024-03-22T12:45:59;29.63;;;19.55;;
49366;SDS011;35245;52.026;8.540;2024-03-22T12:48:25;25.63;;;18.17;;
49366;SDS011;35245;52.026;8.540;2024-03-22T12:50:52;26.38;;;18.00;;
49366;SDS011;35245;52.026;8.540;2024-03-22T12:53:18;25.83;;;19.80;;
49366;SDS011;35245;52.026;8.540;2024-03-22T12:55:45;27.98;;;18.80;;
49366;SDS011;35245;52.026;8.540;2024-03-22T12:58:13;26.48;;;19.38;;
49366;SDS011;35245;52.026;8.540;2024-03-22T13:00:40;30.52;;;19.33;;
49366;SDS011;35245;52.026;8.540;2024-03-22T13:03:06;26.98;;;19.48;;
49366;SDS011;35245;52.026;8.540;2024-03-22T13:05:33;29.75;;;19.88;;
49366;SDS011;35245;52.026;8.540;2024-03-22T13:07:59;27.70;;;19.80;;
49366;SDS011;35245;52.026;8.540;2024-03-22T13:10:27;29.70;;;20.88;;
49366;SDS011;35245;52.026;8.540;2024-03-22T13:12:53;30.85;;;20.60;;
49366;SDS011;35245;52.026;8.540;2024-03-22T13:15:21;27.10;;;18.35;;
49366;SDS011;35245;52.026;8.540;2024-03-22T13:17:47;28.13;;;19.90;;
49366;SDS011;35245;52.026;8.540;2024-03-22T13:20:14;29.52;;;20.02;;
49366;SDS011;35245;52.026;8.540;2024-03-22T13:22:43;30.25;;;21.50;;
49366;SDS011;35245;52.026;8.540;2024-03-22T13:25:10;28.45;;;20.80;;
49366;SDS011;35245;52.026;8.540;2024-03-22T13:27:36;27.55;;;19.98;;
49366;SDS011;35245;52.026;8.540;2024-03-22T13:30:04;31.33;;;20.42;;
49366;SDS011;35245;52.026;8.540;2024-03-22T13:32:36;34.70;;;22.08;;
49366;SDS011;35245;52.026;8.540;2024-03-22T13:35:04;33.13;;;23.55;;
49366;SDS011;35245;52.026;8.540;2024-03-22T13:37:31;34.60;;;24.98;;
49366;SDS011;35245;52.026;8.540;2024-03-22T13:39:58;31.10;;;23.08;;
49366;SDS011;35245;52.026;8.540;2024-03-22T13:42:24;36.15;;;25.50;;
49366;SDS011;35245;52.026;8.540;2024-03-22T13:44:52;34.05;;;25.08;;
49366;SDS011;35245;52.026;8.540;2024-03-22T13:47:18;37.00;;;26.25;;
49366;SDS011;35245;52.026;8.540;2024-03-22T13:49:46;33.58;;;24.20;;
49366;SDS011;35245;52.026;8.540;2024-03-22T13:52:12;39.13;;;27.00;;
49366;SDS011;35245;52.026;8.540;2024-03-22T13:54:39;39.13;;;27.50;;
49366;SDS011;35245;52.026;8.540;2024-03-22T13:57:06;36.72;;;25.85;;
49366;SDS011;35245;52.026;8.540;2024-03-22T13:59:33;37.33;;;27.52;;
49366;SDS011;35245;52.026;8.540;2024-03-22T14:01:59;37.78;;;27.40;;
49366;SDS011;35245;52.026;8.540;2024-03-22T14:04:27;36.20;;;26.33;;
49366;SDS011;35245;52.026;8.540;2024-03-22T14:06:55;41.25;;;28.30;;
49366;SDS011;35245;52.026;8.540;2024-03-22T14:09:22;40.97;;;27.85;;
49366;SDS011;35245;52.026;8.540;2024-03-22T14:11:48;41.22;;;29.60;;
49366;SDS011;35245;52.026;8.540;2024-03-22T14:14:16;39.88;;;27.33;;
49366;SDS011;35245;52.026;8.540;2024-03-22T14:16:42;38.45;;;28.15;;
49366;SDS011;35245;52.026;8.540;2024-03-22T14:19:09;39.65;;;25.52;;
49366;SDS011;35245;52.026;8.540;2024-03-22T14:21:35;35.97;;;25.20;;